UMKK 071000Z 25007MPS 9999 SCT027 20/10 Q1014 R24/95D NOSIG RMK QFE760/1013
QNH:(hPa/inHg/mmHg)1014 / 29.94 / 761
QFE:(hPa/inHg/mmHg)1012 / 29.90 / 759
Temperature20
Dew Point10
Visibility> 10000
Weather
Cloud CoverSCT (2700);
Transition Altitude4000 ft.
Transition LevelFL50
SQUAWK6620